Time;durP1;ratioP1;P1;durP2;ratioP2;P2;SDS_P1;SDS_P2;PMS_P1;PMS_P2;Temp;Humidity;BMP_temperature;BMP_pressure;BME280_temperature;BME280_humidity;BME280_pressure;Samples;Min_cycle;Max_cycle;Signal;HPM_P1;HPM_P2
2022/12/04 00:01:14;;;;;;;60.58;38.70;;;5.30;99.90;;;;;;5072702;28;20069;-74
2022/12/04 00:03:40;;;;;;;50.35;33.58;;;5.30;99.90;;;;;;5061843;28;20036;-74
2022/12/04 00:06:12;;;;;;;41.20;30.60;;;5.30;99.90;;;;;;5070170;28;20020;-75
2022/12/04 00:08:38;;;;;;;50.95;35.92;;;5.40;99.90;;;;;;5060327;28;20511;-74
2022/12/04 00:11:06;;;;;;;101.97;76.25;;;5.40;99.90;;;;;;5073405;28;20095;-75
2022/12/04 00:13:33;;;;;;;54.25;35.88;;;5.30;99.90;;;;;;5073049;28;20052;-74
2022/12/04 00:15:59;;;;;;;43.80;31.23;;;5.30;99.90;;;;;;5062823;28;20020;-74
2022/12/04 00:18:26;;;;;;;52.60;35.53;;;5.30;99.90;;;;;;5073494;28;20042;-74
2022/12/04 00:20:52;;;;;;;46.83;33.05;;;5.30;99.90;;;;;;5058412;28;20024;-74
2022/12/04 00:23:18;;;;;;;46.90;32.58;;;5.20;99.90;;;;;;5072669;28;20021;-75
2022/12/04 00:25:47;;;;;;;49.25;36.22;;;5.20;99.90;;;;;;5065717;28;20533;-74
2022/12/04 00:28:16;;;;;;;56.63;36.88;;;5.20;99.90;;;;;;5064932;28;20040;-75
2022/12/04 00:30:44;;;;;;;57.00;39.85;;;5.20;99.90;;;;;;5075139;28;20017;-74
2022/12/04 00:33:10;;;;;;;44.00;30.58;;;5.20;99.90;;;;;;5065251;28;20055;-74
2022/12/04 00:35:36;;;;;;;43.67;30.40;;;5.20;99.90;;;;;;5075201;28;20020;-74
2022/12/04 00:38:02;;;;;;;51.72;34.20;;;5.20;99.90;;;;;;5059871;28;20083;-74
2022/12/04 00:40:27;;;;;;;51.25;36.65;;;5.20;99.90;;;;;;5070511;28;20063;-74
2022/12/04 00:42:53;;;;;;;43.72;30.77;;;5.20;99.90;;;;;;5063164;28;20056;-75
2022/12/04 00:45:19;;;;;;;46.95;32.33;;;5.10;99.90;;;;;;5061755;28;20025;-74
2022/12/04 00:47:45;;;;;;;42.17;29.90;;;5.20;99.90;;;;;;5070870;28;20028;-74
2022/12/04 00:50:11;;;;;;;44.20;31.35;;;5.20;99.90;;;;;;5067640;28;20496;-74
2022/12/04 00:52:37;;;;;;;45.13;31.15;;;5.20;99.90;;;;;;5071224;28;20036;-74
2022/12/04 00:55:03;;;;;;;46.53;32.03;;;5.20;99.90;;;;;;5069656;28;20020;-74
2022/12/04 00:57:29;;;;;;;46.08;31.80;;;5.20;99.90;;;;;;5063251;28;20060;-74
2022/12/04 00:59:55;;;;;;;44.80;31.60;;;5.20;99.90;;;;;;5067868;28;20029;-74
2022/12/04 01:02:21;;;;;;;47.35;31.80;;;5.20;99.90;;;;;;5073339;28;20036;-75
2022/12/04 01:04:47;;;;;;;49.10;33.22;;;5.10;99.90;;;;;;5066697;28;20104;-75
2022/12/04 01:07:13;;;;;;;44.45;31.65;;;5.10;99.90;;;;;;5069213;28;20081;-75
2022/12/04 01:09:39;;;;;;;45.83;32.13;;;5.10;99.90;;;;;;5060850;28;20077;-75
2022/12/04 01:12:05;;;;;;;44.50;31.90;;;5.10;99.90;;;;;;5066577;28;20017;-75
2022/12/04 01:14:31;;;;;;;52.95;32.90;;;5.10;99.90;;;;;;5059787;28;20033;-75
2022/12/04 01:16:57;;;;;;;50.50;32.40;;;5.00;99.90;;;;;;5065010;28;20093;-75
2022/12/04 01:19:23;;;;;;;47.80;31.65;;;5.00;99.90;;;;;;5065660;28;20563;-75
2022/12/04 01:21:49;;;;;;;46.97;33.35;;;5.00;99.90;;;;;;5064049;28;20039;-74
2022/12/04 01:24:15;;;;;;;41.63;29.65;;;5.00;99.90;;;;;;5065652;28;20033;-75
2022/12/04 01:26:41;;;;;;;42.00;30.50;;;5.00;99.90;;;;;;5069109;28;20020;-75
2022/12/04 01:29:06;;;;;;;42.90;30.83;;;5.00;99.90;;;;;;5069881;28;20092;-74
2022/12/04 01:31:33;;;;;;;43.17;29.67;;;5.00;99.90;;;;;;5070497;28;20104;-75
2022/12/04 01:33:58;;;;;;;42.33;29.80;;;5.00;99.90;;;;;;5065884;28;20021;-74
2022/12/04 01:36:27;;;;;;;45.55;29.17;;;5.00;99.90;;;;;;5069785;28;20036;-74
2022/12/04 01:38:53;;;;;;;45.58;32.00;;;5.00;99.90;;;;;;5063340;28;20126;-74
2022/12/04 01:41:23;;;;;;;42.00;29.75;;;5.00;99.90;;;;;;5058370;28;20331;-75
2022/12/04 01:44:12;;;;;;;49.30;32.13;;;5.00;99.90;;;;;;5064470;28;20499;-75
2022/12/04 01:46:40;;;;;;;45.03;30.13;;;5.00;99.90;;;;;;5069542;28;20017;-75
2022/12/04 01:49:09;;;;;;;43.95;31.13;;;5.00;99.90;;;;;;5067462;28;20393;-75
2022/12/04 01:51:40;;;;;;;43.00;31.00;;;5.00;99.90;;;;;;5073899;28;20025;-74
2022/12/04 01:54:19;;;;;;;45.72;30.85;;;4.90;99.90;;;;;;5065523;28;20025;-74
2022/12/04 01:56:53;;;;;;;56.05;38.75;;;4.90;99.90;;;;;;5073432;28;20031;-74
2022/12/04 01:59:24;;;;;;;49.80;33.58;;;4.80;99.90;;;;;;5060544;28;20029;-74
2022/12/04 02:02:10;;;;;;;47.90;33.80;;;4.80;99.90;;;;;;5070244;28;20021;-74
2022/12/04 02:04:39;;;;;;;39.42;26.95;;;4.80;99.90;;;;;;5064336;28;20017;-75
2022/12/04 02:07:04;;;;;;;36.33;27.10;;;4.80;99.90;;;;;;5072379;28;20031;-75
2022/12/04 02:09:31;;;;;;;36.53;26.58;;;4.80;99.90;;;;;;5070659;28;20052;-74
2022/12/04 02:12:15;;;;;;;43.50;29.35;;;4.70;99.90;;;;;;5068957;28;20111;-74
2022/12/04 02:15:02;;;;;;;87.00;56.72;;;4.70;99.90;;;;;;5062887;28;20032;-74
2022/12/04 02:17:39;;;;;;;47.92;31.27;;;4.70;99.90;;;;;;5061102;28;20051;-74
2022/12/04 02:20:16;;;;;;;61.33;39.45;;;4.70;99.90;;;;;;5063126;28;20025;-74
2022/12/04 02:22:42;;;;;;;54.75;36.67;;;4.70;99.90;;;;;;5064111;28;20450;-75
2022/12/04 02:25:23;;;;;;;42.72;30.63;;;4.70;99.90;;;;;;5063227;28;20037;-74
2022/12/04 02:28:22;;;;;;;62.55;43.03;;;4.70;99.90;;;;;;5074922;28;20025;-74
2022/12/04 02:30:51;;;;;;;45.53;30.60;;;4.60;99.90;;;;;;5069604;28;20032;-74
2022/12/04 02:33:22;;;;;;;40.38;29.30;;;4.60;99.90;;;;;;5070119;28;20093;-74
2022/12/04 02:35:58;;;;;;;44.00;29.42;;;4.60;99.90;;;;;;5067329;28;20078;-74
2022/12/04 02:38:36;;;;;;;39.58;27.92;;;4.60;99.90;;;;;;5069200;28;20032;-74
2022/12/04 02:41:55;;;;;;;37.85;27.65;;;4.60;99.90;;;;;;5067131;28;20021;-74
2022/12/04 02:44:29;;;;;;;69.22;41.90;;;4.60;99.90;;;;;;5064122;28;20454;-74
2022/12/04 02:46:59;;;;;;;45.10;30.48;;;4.60;99.90;;;;;;5072789;28;20032;-74
2022/12/04 02:49:36;;;;;;;40.70;28.15;;;4.60;99.90;;;;;;5066699;28;20017;-74
2022/12/04 02:52:07;;;;;;;42.25;29.30;;;4.60;99.90;;;;;;5066602;28;20032;-74
2022/12/04 02:54:38;;;;;;;42.42;30.10;;;4.60;99.90;;;;;;5065353;28;20028;-74
2022/12/04 02:57:09;;;;;;;44.80;30.10;;;4.60;99.90;;;;;;5063981;28;20052;-74
2022/12/04 02:59:43;;;;;;;42.15;28.13;;;4.60;99.90;;;;;;5065410;28;20025;-74
2022/12/04 03:02:21;;;;;;;44.53;28.73;;;4.60;99.90;;;;;;5072296;28;20040;-74
2022/12/04 03:04:49;;;;;;;43.05;27.92;;;4.60;99.90;;;;;;5067250;28;20547;-74
2022/12/04 03:07:23;;;;;;;45.33;29.17;;;4.50;99.90;;;;;;5068401;28;20021;-74
2022/12/04 03:09:56;;;;;;;42.00;28.88;;;4.50;99.90;;;;;;5070684;28;20141;-74
2022/12/04 03:12:39;;;;;;;45.33;29.30;;;4.50;99.90;;;;;;5075898;28;20107;-74
2022/12/04 03:15:11;;;;;;;42.72;28.33;;;4.40;99.90;;;;;;5068366;28;20021;-74
2022/12/04 03:17:47;;;;;;;35.88;26.65;;;4.30;99.90;;;;;;5073732;28;20056;-74
2022/12/04 03:20:15;;;;;;;39.13;27.58;;;4.30;99.90;;;;;;5070336;28;20036;-74
2022/12/04 03:22:45;;;;;;;51.75;31.02;;;4.30;99.90;;;;;;5073938;28;20134;-74
2022/12/04 03:25:12;;;;;;;41.15;28.95;;;4.30;99.90;;;;;;5074548;28;20036;-74
2022/12/04 03:27:59;;;;;;;46.55;29.98;;;4.30;99.90;;;;;;5068036;28;20024;-74
2022/12/04 03:30:28;;;;;;;56.03;31.85;;;4.30;99.90;;;;;;5065307;28;20113;-74
2022/12/04 03:33:14;;;;;;;230.38;76.07;;;4.30;99.90;;;;;;5064108;28;20028;-74
2022/12/04 03:35:58;;;;;;;112.60;46.22;;;4.40;99.90;;;;;;5059970;28;20059;-74
2022/12/04 03:38:46;;;;;;;201.68;67.43;;;4.40;99.90;;;;;;5072753;28;20058;-74
2022/12/04 03:41:23;;;;;;;149.57;57.92;;;4.30;99.90;;;;;;5069384;28;20031;-74
2022/12/04 03:44:12;;;;;;;51.75;32.45;;;4.30;99.90;;;;;;5068738;28;20025;-74
2022/12/04 03:47:05;;;;;;;160.35;57.90;;;4.30;99.90;;;;;;5062761;28;20021;-75
2022/12/04 03:49:31;;;;;;;416.55;141.77;;;4.30;99.90;;;;;;5064609;28;20400;-74
2022/12/04 03:52:23;;;;;;;116.03;51.80;;;4.30;99.90;;;;;;5061887;28;20017;-74
2022/12/04 03:55:00;;;;;;;78.35;39.67;;;4.30;99.90;;;;;;5063274;28;20020;-74
2022/12/04 03:57:32;;;;;;;107.20;50.05;;;4.30;99.90;;;;;;5062568;28;20017;-74
2022/12/04 04:00:07;;;;;;;42.78;29.20;;;4.20;99.90;;;;;;5065305;28;20508;-74
2022/12/04 04:02:38;;;;;;;104.45;51.08;;;4.20;99.90;;;;;;5059872;28;20085;-74
2022/12/04 04:05:07;;;;;;;190.18;81.03;;;4.20;99.90;;;;;;5060787;28;20075;-74
2022/12/04 04:07:39;;;;;;;41.70;26.73;;;4.10;99.90;;;;;;5071311;28;20017;-74
2022/12/04 04:10:10;;;;;;;49.92;31.20;;;4.10;99.90;;;;;;5061495;28;20042;-74
2022/12/04 04:12:42;;;;;;;48.35;31.00;;;4.00;99.90;;;;;;5061126;28;20082;-74
2022/12/04 04:26:39;;;;;;;363.42;169.25;;;3.80;99.90;;;;;;5066147;28;20558;-74
2022/12/04 04:29:05;;;;;;;119.32;61.10;;;3.80;99.90;;;;;;5060990;28;20029;-74
2022/12/04 04:31:43;;;;;;;295.38;144.27;;;3.60;99.90;;;;;;5065130;28;20099;-74
2022/12/04 04:34:30;;;;;;;44.90;29.25;;;3.50;99.90;;;;;;5061265;28;20029;-74
2022/12/04 04:37:34;;;;;;;56.50;33.60;;;3.50;99.90;;;;;;5064463;28;20021;-74
2022/12/04 04:40:00;;;;;;;38.65;27.15;;;3.40;99.90;;;;;;5061602;28;20536;-74
2022/12/04 04:42:43;;;;;;;44.72;31.40;;;3.30;99.90;;;;;;5059672;28;20036;-74
2022/12/04 04:45:44;;;;;;;45.90;30.42;;;3.20;99.90;;;;;;5062749;28;20024;-74
2022/12/04 04:48:16;;;;;;;47.63;31.50;;;3.10;99.90;;;;;;5044209;28;20037;-75
2022/12/04 04:50:43;;;;;;;43.60;29.63;;;3.00;99.90;;;;;;5069069;28;20108;-74
2022/12/04 04:53:14;;;;;;;49.67;32.60;;;3.00;99.90;;;;;;5060957;28;20056;-74
2022/12/04 04:55:41;;;;;;;50.58;31.63;;;2.90;99.90;;;;;;5059875;28;20035;-74
2022/12/04 04:58:16;;;;;;;40.53;27.60;;;2.80;99.90;;;;;;5059715;28;20078;-74
2022/12/04 05:00:56;;;;;;;44.65;29.85;;;2.70;99.90;;;;;;5072038;28;20028;-74
2022/12/04 05:03:22;;;;;;;52.60;30.98;;;2.70;99.90;;;;;;5057873;28;20024;-74
2022/12/04 05:05:48;;;;;;;50.65;31.40;;;2.70;99.90;;;;;;5065380;28;20025;-74
2022/12/04 05:08:14;;;;;;;70.15;43.92;;;2.60;99.90;;;;;;5059799;28;20028;-74
2022/12/04 05:10:40;;;;;;;61.92;38.63;;;2.60;99.90;;;;;;5069870;28;20026;-74
2022/12/04 05:13:08;;;;;;;45.28;30.35;;;2.60;99.90;;;;;;5072662;28;20113;-74
2022/12/04 05:15:34;;;;;;;48.67;32.05;;;2.50;99.90;;;;;;5070106;28;20027;-74
2022/12/04 05:17:59;;;;;;;52.50;34.72;;;2.50;99.90;;;;;;5067875;28;20041;-74
2022/12/04 05:20:25;;;;;;;51.20;30.52;;;2.50;99.90;;;;;;5069932;28;20450;-74
2022/12/04 05:22:51;;;;;;;42.92;30.77;;;2.40;99.90;;;;;;5064241;28;20028;-74
2022/12/04 05:25:17;;;;;;;50.53;31.58;;;2.40;99.90;;;;;;5068485;28;20041;-74
2022/12/04 05:27:42;;;;;;;47.38;32.60;;;2.30;99.90;;;;;;5063261;28;20502;-74
2022/12/04 05:30:10;;;;;;;48.72;32.53;;;2.30;99.90;;;;;;5068178;28;20100;-74
2022/12/04 05:32:36;;;;;;;51.45;31.95;;;2.30;99.90;;;;;;5062488;28;20574;-74
2022/12/04 05:35:02;;;;;;;45.58;31.35;;;2.30;99.90;;;;;;5070646;28;20033;-74
2022/12/04 05:37:28;;;;;;;41.58;31.30;;;2.30;99.90;;;;;;5070522;28;20544;-73
2022/12/04 05:39:54;;;;;;;52.55;33.42;;;2.20;99.90;;;;;;5070280;28;20060;-74
2022/12/04 05:42:20;;;;;;;49.75;31.95;;;2.20;99.90;;;;;;5071621;28;20031;-74
2022/12/04 05:44:47;;;;;;;50.22;32.75;;;2.20;99.90;;;;;;5060059;28;20025;-75
2022/12/04 05:47:13;;;;;;;48.97;30.63;;;2.30;99.90;;;;;;5064906;28;20388;-74
2022/12/04 05:49:39;;;;;;;48.00;33.45;;;2.30;99.90;;;;;;5061518;28;20238;-74
2022/12/04 05:52:05;;;;;;;79.28;52.55;;;2.30;99.90;;;;;;5073710;28;20029;-74
2022/12/04 05:54:31;;;;;;;58.60;38.42;;;2.30;99.90;;;;;;5061787;28;20408;-74
2022/12/04 05:56:57;;;;;;;56.28;35.97;;;2.30;99.90;;;;;;5074372;28;20095;-75
2022/12/04 05:59:23;;;;;;;53.35;34.22;;;2.30;99.90;;;;;;5062575;28;20037;-74
2022/12/04 06:01:48;;;;;;;46.78;33.42;;;2.30;99.90;;;;;;5071535;28;20027;-74
2022/12/04 06:04:14;;;;;;;51.35;36.05;;;2.30;99.90;;;;;;5060200;28;20067;-74
2022/12/04 06:06:40;;;;;;;54.95;37.15;;;2.30;99.90;;;;;;5072266;28;20020;-74
2022/12/04 06:09:08;;;;;;;116.13;74.38;;;2.30;99.90;;;;;;5058375;28;20485;-72
2022/12/04 06:11:37;;;;;;;65.65;41.97;;;2.30;99.90;;;;;;5072960;28;20102;-73
2022/12/04 06:14:05;;;;;;;52.55;34.50;;;2.30;99.90;;;;;;5070550;28;20024;-72
2022/12/04 06:16:35;;;;;;;50.28;33.47;;;2.30;99.90;;;;;;5072062;28;20037;-73
2022/12/04 06:19:04;;;;;;;63.80;40.60;;;2.30;99.90;;;;;;5060437;28;20033;-73
2022/12/04 06:21:32;;;;;;;50.85;31.08;;;2.30;99.90;;;;;;5065524;28;20399;-72
2022/12/04 06:23:58;;;;;;;55.33;32.40;;;2.30;99.90;;;;;;5067215;28;20497;-73
2022/12/04 06:26:25;;;;;;;47.88;31.80;;;2.30;99.90;;;;;;5074013;28;20068;-72
2022/12/04 06:28:55;;;;;;;52.90;32.90;;;2.30;99.90;;;;;;5064467;28;20025;-73
2022/12/04 06:31:22;;;;;;;62.25;38.67;;;2.30;99.90;;;;;;5074133;28;20017;-73
2022/12/04 06:33:48;;;;;;;51.28;34.28;;;2.20;99.90;;;;;;5065141;28;20025;-73
2022/12/04 06:36:18;;;;;;;45.90;31.45;;;2.20;99.90;;;;;;5077480;28;20031;-73
2022/12/04 06:38:44;;;;;;;48.05;32.28;;;2.20;99.90;;;;;;5074321;28;20526;-73
2022/12/04 06:41:12;;;;;;;47.13;32.15;;;2.20;99.90;;;;;;5077455;28;20024;-73
2022/12/04 06:43:39;;;;;;;54.13;33.22;;;2.20;99.90;;;;;;5072732;28;20036;-73
2022/12/04 06:46:14;;;;;;;55.95;37.22;;;2.20;99.90;;;;;;5078111;28;20020;-73
2022/12/04 06:48:40;;;;;;;362.65;237.63;;;2.10;99.90;;;;;;5070848;28;20029;-73
2022/12/04 06:51:18;;;;;;;71.72;44.47;;;2.10;99.90;;;;;;5070855;28;20026;-72
2022/12/04 06:53:44;;;;;;;49.75;32.47;;;2.00;99.90;;;;;;5068713;28;20024;-72
2022/12/04 06:56:16;;;;;;;62.45;43.78;;;2.00;99.90;;;;;;5077782;28;20394;-72
2022/12/04 06:58:44;;;;;;;53.53;34.88;;;2.00;99.90;;;;;;5062435;28;20040;-72
2022/12/04 07:01:14;;;;;;;53.42;32.85;;;1.90;99.90;;;;;;5076552;28;20052;-73
2022/12/04 07:03:40;;;;;;;64.63;40.77;;;1.80;99.90;;;;;;5063445;28;20056;-73
2022/12/04 07:06:24;;;;;;;58.25;38.72;;;1.80;99.90;;;;;;5066625;28;20021;-73
2022/12/04 07:08:52;;;;;;;64.65;43.45;;;1.70;99.90;;;;;;5062172;28;20060;-73
2022/12/04 07:11:19;;;;;;;105.55;68.47;;;1.70;99.90;;;;;;5072379;28;20028;-72
2022/12/04 07:13:45;;;;;;;57.30;38.35;;;1.70;99.90;;;;;;5072010;28;20154;-73
2022/12/04 07:16:13;;;;;;;64.90;40.63;;;1.70;99.90;;;;;;5073297;28;20052;-73
2022/12/04 07:18:40;;;;;;;80.07;50.13;;;1.60;99.90;;;;;;5074499;28;20039;-72
2022/12/04 07:21:07;;;;;;;81.90;51.05;;;1.70;99.90;;;;;;5074688;28;20029;-72
2022/12/04 07:23:34;;;;;;;115.43;74.00;;;1.70;99.90;;;;;;5065554;28;20061;-72
2022/12/04 07:26:09;;;;;;;58.88;39.17;;;1.70;99.90;;;;;;5073869;28;20048;-72
2022/12/04 07:28:36;;;;;;;63.78;41.47;;;1.70;99.90;;;;;;5063958;28;20021;-72
2022/12/04 07:31:07;;;;;;;59.38;37.75;;;1.80;99.90;;;;;;5073160;28;20013;-72
2022/12/04 07:33:33;;;;;;;;;;;1.90;99.90;;;;;;5060414;28;20067;-73
2022/12/04 07:36:00;;;;;;;67.53;39.83;;;2.00;99.90;;;;;;5073975;28;19939;-72
2022/12/04 07:38:27;;;;;;;88.38;59.05;;;2.20;99.90;;;;;;5075820;28;20527;-72
2022/12/04 07:40:58;;;;;;;61.00;39.53;;;2.30;99.90;;;;;;5070914;28;20035;-72
2022/12/04 07:43:24;;;;;;;57.42;36.95;;;2.40;99.90;;;;;;5063743;28;20029;-72
2022/12/04 07:45:51;;;;;;;51.50;34.47;;;2.50;99.90;;;;;;5072858;28;20399;-73
2022/12/04 07:48:17;;;;;;;50.85;35.20;;;2.40;99.90;;;;;;5071634;28;20017;-73
2022/12/04 07:50:43;;;;;;;51.97;33.90;;;2.40;99.90;;;;;;5073002;28;20039;-72
2022/12/04 07:53:09;;;;;;;52.85;33.85;;;2.30;99.90;;;;;;5069912;28;20075;-72
2022/12/04 07:55:34;;;;;;;79.93;50.88;;;2.30;99.90;;;;;;5072624;28;20497;-72
2022/12/04 07:58:00;;;;;;;54.08;36.22;;;2.30;99.90;;;;;;5068330;28;20108;-73
2022/12/04 08:00:26;;;;;;;53.38;36.17;;;2.30;99.90;;;;;;5066453;28;20114;-72
2022/12/04 08:02:52;;;;;;;66.80;42.25;;;2.30;99.90;;;;;;5056147;28;20057;-72
2022/12/04 08:05:18;;;;;;;66.95;39.03;;;2.40;99.90;;;;;;5066952;28;20099;-73
2022/12/04 08:07:44;;;;;;;107.53;73.43;;;2.40;99.90;;;;;;5060246;28;20054;-73
2022/12/04 08:10:09;;;;;;;127.35;88.95;;;2.50;99.90;;;;;;5062495;28;20033;-72
2022/12/04 08:12:35;;;;;;;58.10;39.60;;;2.50;99.90;;;;;;5074701;28;20026;-73
2022/12/04 08:15:01;;;;;;;74.47;42.55;;;2.60;99.90;;;;;;5069650;28;20067;-73
2022/12/04 08:17:27;;;;;;;61.60;42.20;;;2.60;99.90;;;;;;5069148;28;20025;-73
2022/12/04 08:19:53;;;;;;;66.10;45.40;;;2.70;99.90;;;;;;5069338;28;20025;-73
2022/12/04 08:22:19;;;;;;;68.38;48.97;;;2.90;99.90;;;;;;5068447;28;20102;-73
2022/12/04 08:24:45;;;;;;;62.65;44.95;;;3.00;99.90;;;;;;5068338;28;20484;-73
2022/12/04 08:27:11;;;;;;;63.75;40.35;;;3.10;99.90;;;;;;5060339;28;20017;-73
2022/12/04 08:29:37;;;;;;;53.75;37.40;;;3.30;99.90;;;;;;5067673;28;20027;-73
2022/12/04 08:32:03;;;;;;;61.92;41.75;;;3.40;99.90;;;;;;5060116;28;20072;-72
2022/12/04 08:34:29;;;;;;;53.90;35.80;;;3.50;99.90;;;;;;5062922;28;20025;-73
2022/12/04 08:36:55;;;;;;;51.13;35.58;;;3.50;99.90;;;;;;5060385;28;20031;-72
2022/12/04 08:39:20;;;;;;;52.40;36.83;;;3.60;99.90;;;;;;5067054;28;20052;-73
2022/12/04 08:41:46;;;;;;;51.40;36.10;;;3.70;99.90;;;;;;5075363;28;20055;-73
2022/12/04 08:44:12;;;;;;;46.42;30.88;;;3.90;99.90;;;;;;5071745;28;20029;-74
2022/12/04 08:46:38;;;;;;;42.95;30.05;;;4.00;99.90;;;;;;5073038;28;20024;-73
2022/12/04 08:49:04;;;;;;;113.97;75.50;;;4.10;99.90;;;;;;5069174;28;20108;-73
2022/12/04 08:51:33;;;;;;;48.45;29.67;;;4.20;99.90;;;;;;5063982;28;20515;-73
2022/12/04 08:54:05;;;;;;;45.60;32.47;;;4.30;99.90;;;;;;5068129;28;20413;-73
2022/12/04 08:56:31;;;;;;;41.55;25.27;;;4.40;99.90;;;;;;5072734;28;20013;-73
2022/12/04 08:58:58;;;;;;;35.30;25.42;;;4.60;99.90;;;;;;5069557;28;20564;-73
2022/12/04 09:01:25;;;;;;;40.03;27.40;;;4.60;99.90;;;;;;5075419;28;20020;-74
2022/12/04 09:03:51;;;;;;;59.05;34.42;;;4.70;99.90;;;;;;5070182;28;20020;-73
2022/12/04 09:06:17;;;;;;;69.00;40.13;;;4.90;99.90;;;;;;5070770;28;20084;-73
2022/12/04 09:08:43;;;;;;;63.97;36.90;;;4.90;99.90;;;;;;5073834;28;20618;-75
2022/12/04 09:11:16;;;;;;;32.03;22.70;;;5.10;99.90;;;;;;5070201;28;20154;-73
2022/12/04 09:13:43;;;;;;;36.97;25.70;;;5.10;99.90;;;;;;5072669;28;20025;-73
2022/12/04 09:16:14;;;;;;;28.90;21.50;;;5.20;99.90;;;;;;5072104;28;20020;-74
2022/12/04 09:18:40;;;;;;;33.20;23.08;;;5.10;99.90;;;;;;5069634;28;20040;-74
2022/12/04 09:21:09;;;;;;;38.45;23.77;;;5.10;99.90;;;;;;5063371;28;20075;-73
2022/12/04 09:23:36;;;;;;;38.78;24.92;;;5.00;99.90;;;;;;5069278;28;20082;-73
2022/12/04 09:26:02;;;;;;;32.88;22.77;;;5.20;99.90;;;;;;5068465;28;20127;-74
2022/12/04 09:28:28;;;;;;;37.70;22.45;;;5.30;99.90;;;;;;5066620;28;20091;-74
2022/12/04 09:31:01;;;;;;;31.73;22.27;;;5.30;99.90;;;;;;5068753;28;20017;-74
2022/12/04 09:33:27;;;;;;;33.90;23.42;;;5.40;99.90;;;;;;5062425;28;20387;-75
2022/12/04 09:35:53;;;;;;;30.40;21.10;;;5.50;99.90;;;;;;5071739;28;20028;-75
2022/12/04 09:38:19;;;;;;;30.08;21.75;;;5.60;99.90;;;;;;5063905;28;20485;-75
2022/12/04 09:40:57;;;;;;;368.25;220.35;;;5.60;99.90;;;;;;5065200;28;20867;-75
2022/12/04 09:43:33;;;;;;;410.85;200.43;;;5.50;99.90;;;;;;5059681;28;20047;-75
2022/12/04 09:46:09;;;;;;;614.55;343.70;;;5.60;99.90;;;;;;5070231;28;20027;-76
2022/12/04 09:48:38;;;;;;;456.67;231.88;;;5.70;99.90;;;;;;5068410;28;20405;-75
2022/12/04 09:51:05;;;;;;;44.58;28.05;;;5.80;99.90;;;;;;5069728;28;20020;-75
2022/12/04 09:54:01;;;;;;;157.30;74.75;;;5.70;99.90;;;;;;5070069;28;20052;-75
2022/12/04 09:56:30;;;;;;;31.60;23.00;;;5.70;99.90;;;;;;5073666;28;20029;-75
2022/12/04 09:59:13;;;;;;;31.13;22.02;;;5.60;99.90;;;;;;5071045;28;20078;-75
2022/12/04 10:01:47;;;;;;;203.10;121.05;;;5.50;99.90;;;;;;5069665;28;20163;-74
2022/12/04 10:04:13;;;;;;;161.48;106.80;;;5.40;99.90;;;;;;5070967;28;20032;-75
2022/12/04 10:07:06;;;;;;;77.35;53.72;;;5.30;99.90;;;;;;5071522;28;20021;-75
2022/12/04 10:09:44;;;;;;;31.45;20.63;;;5.40;99.90;;;;;;5067083;28;20021;-75
2022/12/04 10:12:25;;;;;;;29.73;20.00;;;5.50;99.90;;;;;;5071664;28;20036;-75
2022/12/04 10:15:12;;;;;;;29.48;19.38;;;5.60;99.90;;;;;;5070998;28;20032;-77
2022/12/04 10:17:56;;;;;;;29.02;20.17;;;5.60;99.90;;;;;;5070681;28;20024;-75
2022/12/04 10:20:30;;;;;;;32.70;21.88;;;5.70;99.90;;;;;;5063033;28;20146;-75
2022/12/04 10:23:24;;;;;;;32.42;20.98;;;5.80;99.90;;;;;;5061879;28;20645;-75
2022/12/04 10:25:52;;;;;;;33.15;21.45;;;5.90;99.90;;;;;;5065933;28;20041;-75
2022/12/04 10:28:38;;;;;;;30.73;21.40;;;5.90;99.90;;;;;;5068659;28;20032;-75
2022/12/04 10:31:10;;;;;;;30.48;21.30;;;6.00;99.90;;;;;;5063086;28;20025;-76
2022/12/04 10:33:55;;;;;;;40.38;29.52;;;6.10;99.90;;;;;;5064481;28;20037;-75
2022/12/04 10:36:25;;;;;;;32.15;22.15;;;6.00;99.90;;;;;;5071018;28;20023;-75
2022/12/04 10:39:10;;;;;;;76.65;45.63;;;6.20;99.90;;;;;;5067233;28;20036;-75
2022/12/04 10:41:45;;;;;;;72.80;42.25;;;6.20;99.90;;;;;;5083140;28;20615;-76
2022/12/04 10:44:17;;;;;;;27.83;21.10;;;6.20;99.90;;;;;;5071775;28;20025;-76
2022/12/04 10:46:43;;;;;;;27.55;21.17;;;6.20;99.90;;;;;;5073886;28;20121;-76
2022/12/04 10:49:17;;;;;;;67.63;39.20;;;6.20;99.90;;;;;;5069506;28;20029;-75
2022/12/04 10:51:45;;;;;;;375.15;174.63;;;6.10;99.90;;;;;;5069705;28;20036;-76
2022/12/04 10:54:39;;;;;;;31.52;21.83;;;6.10;99.90;;;;;;5071440;28;20039;-75
2022/12/04 10:57:06;;;;;;;32.63;22.45;;;6.10;99.90;;;;;;5069567;28;20025;-76
2022/12/04 10:59:33;;;;;;;47.28;30.52;;;6.10;99.90;;;;;;5067340;28;20036;-76
2022/12/04 11:02:04;;;;;;;31.80;23.27;;;6.10;99.90;;;;;;5067119;28;20017;-75
2022/12/04 11:04:30;;;;;;;;;;;6.20;99.90;;;;;;5072140;28;20564;-75
2022/12/04 11:07:15;;;;;;;31.05;23.25;;;6.30;99.90;;;;;;5072506;28;19999;-77
2022/12/04 11:09:41;;;;;;;33.85;25.95;;;6.40;99.90;;;;;;5073028;28;20070;-76
2022/12/04 11:12:20;;;;;;;29.42;20.42;;;6.50;99.90;;;;;;5073058;28;20021;-76
2022/12/04 11:14:45;;;;;;;15.82;12.55;;;6.50;99.90;;;;;;5072045;28;20024;-76
2022/12/04 11:17:18;;;;;;;15.05;12.73;;;6.50;99.90;;;;;;5074731;28;20029;-76
2022/12/04 11:19:45;;;;;;;15.15;11.18;;;6.50;99.90;;;;;;5070121;28;20384;-76
2022/12/04 11:22:18;;;;;;;15.55;13.18;;;6.60;99.90;;;;;;5075344;28;20043;-76
2022/12/04 11:24:52;;;;;;;17.10;12.98;;;6.60;99.90;;;;;;5073592;28;20060;-77
2022/12/04 11:27:30;;;;;;;14.52;12.95;;;6.60;99.90;;;;;;5073205;28;20035;-76
2022/12/04 11:29:59;;;;;;;18.73;14.35;;;6.60;99.90;;;;;;5071544;28;20024;-76
2022/12/04 11:32:29;;;;;;;20.73;15.75;;;6.70;99.90;;;;;;5071396;28;20029;-75
2022/12/04 11:35:18;;;;;;;20.95;16.63;;;6.80;99.90;;;;;;5071377;28;20036;-75
2022/12/04 11:37:54;;;;;;;23.40;18.08;;;6.70;99.90;;;;;;5063752;28;20041;-75
2022/12/04 11:40:21;;;;;;;20.08;16.88;;;6.70;99.90;;;;;;5068194;28;20515;-75
2022/12/04 11:43:04;;;;;;;26.83;21.60;;;6.70;99.90;;;;;;5071932;28;20089;-75
2022/12/04 11:45:31;;;;;;;24.60;19.77;;;6.70;99.90;;;;;;5070388;28;20031;-75
2022/12/04 11:48:00;;;;;;;22.05;17.10;;;6.80;99.90;;;;;;5063952;28;20078;-75
2022/12/04 11:50:53;;;;;;;21.85;17.23;;;6.90;99.90;;;;;;5071158;28;20088;-75
2022/12/04 11:53:35;;;;;;;19.95;15.38;;;7.10;99.90;;;;;;5072295;28;20028;-75
2022/12/04 11:56:09;;;;;;;20.35;13.70;;;7.20;99.90;;;;;;5074041;28;20024;-75
2022/12/04 11:58:57;;;;;;;18.52;13.30;;;7.50;99.90;;;;;;5070085;28;20052;-76
2022/12/04 12:01:39;;;;;;;16.77;12.68;;;7.60;99.90;;;;;;5073998;28;20024;-75
2022/12/04 12:04:41;;;;;;;15.38;11.90;;;7.80;99.90;;;;;;5072938;28;20076;-76
2022/12/04 12:07:37;;;;;;;15.10;11.65;;;7.80;99.90;;;;;;5071704;28;20028;-76
2022/12/04 12:10:08;;;;;;;18.40;12.57;;;7.60;99.90;;;;;;5068046;28;20082;-75
2022/12/04 12:12:55;;;;;;;15.00;11.63;;;7.60;99.90;;;;;;5076530;28;20025;-76
2022/12/04 12:15:27;;;;;;;15.38;13.25;;;7.70;99.90;;;;;;5071242;28;20036;-76
2022/12/04 12:18:31;;;;;;;18.45;12.57;;;7.80;99.90;;;;;;5074789;28;20773;-75
2022/12/04 12:21:15;;;;;;;16.45;12.82;;;7.90;99.90;;;;;;5012544;28;20101;-76
2022/12/04 12:24:07;;;;;;;14.35;11.65;;;7.90;99.90;;;;;;5068203;28;20087;-76
2022/12/04 12:26:53;;;;;;;15.68;12.13;;;7.90;99.90;;;;;;5076331;28;20048;-76
2022/12/04 12:29:54;;;;;;;16.08;12.32;;;7.80;99.90;;;;;;5070649;28;20032;-76
2022/12/04 12:32:26;;;;;;;;;;;7.80;99.90;;;;;;5069242;28;20044;-75
2022/12/04 12:34:52;;;;;;;18.85;13.45;;;7.80;99.90;;;;;;5068572;28;19917;-76
2022/12/04 12:37:56;;;;;;;18.23;13.80;;;7.80;99.90;;;;;;5068620;28;21463;-75
2022/12/04 12:40:34;;;;;;;16.90;12.95;;;7.90;99.90;;;;;;5050640;28;20064;-76
2022/12/04 12:43:40;;;;;;;18.77;13.10;;;8.00;99.90;;;;;;5068211;28;20591;-76
2022/12/04 12:46:11;;;;;;;18.00;14.63;;;7.90;99.90;;;;;;5069851;28;20048;-75
2022/12/04 12:48:49;;;;;;;21.45;15.30;;;7.90;99.90;;;;;;5066441;28;20017;-76
2022/12/04 12:51:46;;;;;;;21.20;14.40;;;7.90;99.90;;;;;;5062169;28;20021;-75
2022/12/04 12:54:50;;;;;;;21.38;16.20;;;7.80;99.90;;;;;;5063197;28;20035;-76
2022/12/04 12:57:25;;;;;;;19.02;15.15;;;7.80;99.90;;;;;;5079470;28;20032;-76
2022/12/04 12:59:56;;;;;;;21.83;15.02;;;7.80;99.90;;;;;;5069151;28;20123;-75
2022/12/04 13:02:29;;;;;;;20.52;15.05;;;7.90;99.90;;;;;;5064913;28;20025;-75
2022/12/04 13:05:03;;;;;;;21.83;16.42;;;8.00;99.90;;;;;;5069769;28;20086;-75
2022/12/04 13:07:46;;;;;;;21.10;15.40;;;8.00;99.90;;;;;;5069468;28;20035;-76
2022/12/04 13:10:26;;;;;;;20.67;15.52;;;8.00;99.90;;;;;;5063385;28;20021;-75
2022/12/04 13:13:03;;;;;;;19.00;13.75;;;8.00;99.90;;;;;;5074282;28;20020;-76